Portada
METAR-TAF:

METAR-TAF

Aeropuertos :

Base Naval de Rota

Rota, España

latitud: 36-39N, longitud: 006-21W, altitud: 26 m

Observación

El informe se hizo hace 44 minutos, a las 12:00 UTC
Viento 6 kt del sur, variando entre sureste y sur-suroeste
Temperatura 19°C
Humedad 73%
Presión 1015 hPa
Visibilidad 10 km o más
Escasas nubes a una altura de 3500 ft

METAR: LERT 151200Z 17006KT 130V200 9999 FEW035 19/14 Q1015 NOSIG

Hora: 13:44 (12:44 UTC)

Pronóstico

El informe se hizo hace 1 hora y 44 minutos, a las 11:00 UTC
Pronóstico válido del 15 a las 12 UTC al 15 a las 21 UTC
Viento 6 kt del sur
Visibilidad 10 km o más
Escasas nubes a una altura de 3500 ft

TAF: LERT 151100Z 1512/1521 18006KT 9999 FEW035

Observaciones y pronósticos meteorológicos de más de 4000 aeropuertos (mensajes METAR y TAF).

Los puntos amarillos y rojos representan las estaciones disponibles.

Ponga el ratón en el punto deseado para ver el nombre de la estación.

Haga clic para ver las observaciones y los pronósticos meteorológicos.

Para cambiar el mapa : haga clic en los botones verdes con una cruz de color negro para hacer un zoom, en el botón verde con un guión para alejar o en las flechas verdes para mapas adyacentes.


METAR-TAF: